Time;durP1;ratioP1;P1;durP2;ratioP2;P2;SDS_P1;SDS_P2;PMS_P1;PMS_P2;Temp;Humidity;BMP_temperature;BMP_pressure;BME280_temperature;BME280_humidity;BME280_pressure;Samples;Min_cycle;Max_cycle;Signal;HPM_P1;HPM_P2
2021/09/23 00:01:51;;;;;;;10.98;5.15;;;17.90;78.80;;;;;;5080231;28;20028;-71
2021/09/23 00:04:21;;;;;;;13.93;8.40;;;17.90;78.90;;;;;;5084411;28;20036;-72
2021/09/23 00:06:48;;;;;;;12.20;5.50;;;17.90;79.00;;;;;;5092395;28;20447;-71
2021/09/23 00:09:14;;;;;;;20.98;12.00;;;17.80;79.50;;;;;;5092687;28;20028;-72
2021/09/23 00:11:40;;;;;;;8.88;4.47;;;17.90;79.20;;;;;;5089131;28;20048;-72
2021/09/23 00:14:05;;;;;;;13.90;6.35;;;17.90;79.00;;;;;;5093649;28;20024;-72
2021/09/23 00:16:31;;;;;;;7.13;3.08;;;17.80;78.90;;;;;;5078703;28;20467;-72
2021/09/23 00:18:57;;;;;;;8.98;5.20;;;17.80;78.90;;;;;;5102678;28;20517;-72
2021/09/23 00:21:22;;;;;;;9.48;5.07;;;17.80;79.00;;;;;;5094588;28;20046;-72
2021/09/23 00:23:49;;;;;;;23.60;7.10;;;17.70;79.00;;;;;;5079995;28;20033;-72
2021/09/23 00:26:15;;;;;;;11.50;7.10;;;17.70;79.00;;;;;;5089391;28;20475;-72
2021/09/23 00:28:43;;;;;;;17.85;7.60;;;17.70;79.10;;;;;;5081819;28;20068;-72
2021/09/23 00:31:09;;;;;;;17.77;9.48;;;17.70;79.20;;;;;;5092830;28;20471;-72
2021/09/23 00:33:35;;;;;;;9.43;5.78;;;17.70;79.30;;;;;;5090299;28;20028;-71
2021/09/23 00:36:00;;;;;;;8.25;4.90;;;17.70;79.20;;;;;;5086520;28;20463;-72
2021/09/23 00:38:26;;;;;;;18.45;9.77;;;17.70;79.20;;;;;;5085069;28;20127;-71
2021/09/23 00:40:52;;;;;;;12.90;5.97;;;17.60;79.40;;;;;;5082602;28;20162;-72
2021/09/23 00:43:18;;;;;;;12.57;6.22;;;17.60;79.40;;;;;;5092027;28;20031;-72
2021/09/23 00:45:43;;;;;;;13.35;6.50;;;17.60;79.60;;;;;;5083191;28;20371;-72
2021/09/23 00:48:09;;;;;;;23.27;11.48;;;17.50;79.60;;;;;;5087802;28;20037;-72
2021/09/23 00:50:36;;;;;;;22.65;9.07;;;17.50;79.80;;;;;;5084461;28;20036;-72
2021/09/23 00:53:10;;;;;;;12.32;7.28;;;17.50;80.00;;;;;;5084884;28;20097;-72
2021/09/23 00:55:37;;;;;;;13.23;7.15;;;17.40;80.00;;;;;;5077468;28;20032;-72
2021/09/23 00:58:03;;;;;;;21.00;6.97;;;17.40;80.10;;;;;;5076618;28;20028;-72
2021/09/23 01:00:34;;;;;;;18.77;8.48;;;17.40;80.30;;;;;;5084570;28;20116;-72
2021/09/23 01:03:12;;;;;;;18.85;8.88;;;17.30;80.30;;;;;;5073743;28;20434;-72
2021/09/23 01:05:39;;;;;;;15.70;9.20;;;17.30;80.50;;;;;;5077691;28;20036;-72
2021/09/23 01:08:07;;;;;;;22.40;9.82;;;17.30;80.40;;;;;;5077717;28;20110;-72
2021/09/23 01:10:33;;;;;;;13.38;5.82;;;17.30;80.50;;;;;;5077209;28;20417;-71
2021/09/23 01:13:00;;;;;;;23.00;11.57;;;17.30;80.70;;;;;;5081397;28;20059;-72
2021/09/23 01:15:38;;;;;;;12.15;6.35;;;17.30;80.70;;;;;;5085016;28;20024;-72
2021/09/23 01:18:05;;;;;;;13.88;7.90;;;17.20;80.70;;;;;;5082337;28;20031;-72
2021/09/23 01:20:31;;;;;;;10.73;7.22;;;17.20;80.80;;;;;;5081469;28;20104;-72
2021/09/23 01:22:56;;;;;;;16.48;7.15;;;17.20;80.90;;;;;;5082738;28;20476;-72
2021/09/23 01:25:29;;;;;;;25.45;12.43;;;17.10;80.90;;;;;;5074105;28;20500;-72
2021/09/23 01:27:55;;;;;;;19.40;10.25;;;17.10;80.90;;;;;;5077497;28;20028;-72
2021/09/23 01:30:46;;;;;;;22.55;9.52;;;17.10;80.90;;;;;;5088291;28;20046;-71
2021/09/23 01:33:12;;;;;;;13.50;6.95;;;17.10;80.90;;;;;;5091021;28;20114;-72
2021/09/23 01:35:38;;;;;;;14.90;8.00;;;17.10;80.90;;;;;;5074026;28;20067;-71
2021/09/23 01:38:05;;;;;;;18.30;9.15;;;17.10;80.90;;;;;;5079994;28;20445;-72
2021/09/23 01:40:31;;;;;;;19.00;9.02;;;17.10;80.90;;;;;;5082558;28;20028;-72
2021/09/23 01:42:57;;;;;;;14.57;8.07;;;17.10;80.90;;;;;;5071361;28;20030;-72
2021/09/23 01:45:24;;;;;;;9.00;5.28;;;17.10;80.80;;;;;;5096050;28;20023;-72
2021/09/23 01:47:50;;;;;;;11.23;5.18;;;17.00;80.70;;;;;;5088532;28;20025;-72
2021/09/23 01:50:20;;;;;;;12.77;6.75;;;17.00;80.70;;;;;;5083479;28;20470;-72
2021/09/23 01:52:49;;;;;;;16.20;8.00;;;17.00;80.70;;;;;;5080793;28;20039;-72
2021/09/23 01:55:15;;;;;;;18.50;8.57;;;17.00;80.70;;;;;;5087789;28;20024;-72
2021/09/23 01:57:42;;;;;;;17.27;9.00;;;17.00;80.70;;;;;;5083847;28;20031;-72
2021/09/23 02:00:08;;;;;;;19.02;9.55;;;16.90;80.70;;;;;;5092037;28;20024;-72
2021/09/23 02:02:42;;;;;;;20.85;11.07;;;16.90;80.80;;;;;;5082190;28;20029;-72
2021/09/23 02:05:21;;;;;;;15.73;7.07;;;16.90;80.90;;;;;;5088898;28;20109;-72
2021/09/23 02:07:46;;;;;;;12.35;6.65;;;16.90;80.80;;;;;;5075552;28;20025;-71
2021/09/23 02:10:14;;;;;;;19.48;8.90;;;16.90;80.90;;;;;;5073210;28;20549;-72
2021/09/23 02:12:41;;;;;;;16.02;7.75;;;16.80;80.90;;;;;;5076038;28;20507;-72
2021/09/23 02:15:10;;;;;;;27.25;11.23;;;16.80;80.90;;;;;;5086134;28;20044;-72
2021/09/23 02:17:36;;;;;;;16.40;8.98;;;16.80;81.00;;;;;;5083458;28;20384;-72
2021/09/23 02:20:07;;;;;;;27.90;14.10;;;16.80;81.00;;;;;;5074010;28;20039;-71
2021/09/23 02:22:43;;;;;;;20.15;9.52;;;16.80;81.10;;;;;;5085555;28;20032;-72
2021/09/23 02:25:10;;;;;;;26.55;10.65;;;16.80;81.00;;;;;;5078513;28;20032;-72
2021/09/23 02:27:35;;;;;;;13.48;7.72;;;16.70;81.10;;;;;;5071158;28;20113;-72
2021/09/23 02:30:03;;;;;;;30.88;16.33;;;16.80;81.20;;;;;;5075640;28;20055;-72
2021/09/23 02:32:29;;;;;;;20.90;9.38;;;16.70;81.30;;;;;;5078652;28;20494;-72
2021/09/23 02:34:56;;;;;;;19.52;7.03;;;16.70;81.20;;;;;;5077469;28;20020;-72
2021/09/23 02:37:22;;;;;;;30.60;15.88;;;16.70;81.10;;;;;;5069528;28;20052;-72
2021/09/23 02:39:48;;;;;;;15.27;6.45;;;16.70;81.20;;;;;;5074266;28;20166;-72
2021/09/23 02:42:14;;;;;;;21.67;7.45;;;16.70;81.00;;;;;;5089242;28;20115;-72
2021/09/23 02:44:40;;;;;;;9.88;4.65;;;16.70;81.10;;;;;;5075304;28;20036;-73
2021/09/23 02:47:06;;;;;;;29.52;11.10;;;16.60;81.10;;;;;;5080709;28;20067;-73
2021/09/23 02:49:31;;;;;;;21.25;10.65;;;16.60;81.20;;;;;;5080564;28;20666;-73
2021/09/23 02:51:58;;;;;;;22.58;10.15;;;16.60;81.40;;;;;;5085649;28;20043;-73
2021/09/23 02:54:24;;;;;;;24.67;9.68;;;16.60;81.60;;;;;;5083278;28;20030;-73
2021/09/23 02:56:50;;;;;;;19.33;7.55;;;16.60;81.80;;;;;;5077056;28;20036;-73
2021/09/23 02:59:18;;;;;;;29.85;10.73;;;16.50;81.80;;;;;;5076831;28;20020;-73
2021/09/23 03:01:44;;;;;;;26.95;12.38;;;16.50;81.90;;;;;;5082625;28;20493;-73
2021/09/23 03:04:10;;;;;;;17.25;9.20;;;16.50;82.00;;;;;;5071300;28;20104;-73
2021/09/23 03:06:36;;;;;;;17.20;6.90;;;16.50;82.00;;;;;;5071684;28;20108;-73
2021/09/23 03:09:02;;;;;;;18.30;8.15;;;16.50;82.20;;;;;;5074347;28;20035;-73
2021/09/23 03:11:29;;;;;;;22.42;10.70;;;16.40;82.80;;;;;;5076850;28;20032;-73
2021/09/23 03:13:55;;;;;;;9.02;5.68;;;16.50;82.40;;;;;;5069973;28;20494;-74
2021/09/23 03:16:20;;;;;;;21.95;9.73;;;16.40;82.50;;;;;;5085526;28;20035;-74
2021/09/23 03:18:47;;;;;;;25.13;8.75;;;16.50;82.70;;;;;;5078744;28;20028;-74
2021/09/23 03:21:13;;;;;;;23.15;9.68;;;16.40;82.80;;;;;;5075849;28;20020;-74
2021/09/23 03:23:39;;;;;;;11.52;5.15;;;16.40;82.90;;;;;;5077154;28;20060;-74
2021/09/23 03:26:05;;;;;;;23.92;9.70;;;16.40;82.90;;;;;;5075301;28;20071;-74
2021/09/23 03:28:33;;;;;;;18.77;9.18;;;16.40;83.10;;;;;;5078584;28;20467;-74
2021/09/23 03:30:59;;;;;;;28.27;11.07;;;16.40;83.20;;;;;;5080698;28;20036;-74
2021/09/23 03:33:25;;;;;;;18.27;7.35;;;16.40;83.20;;;;;;5073482;28;20048;-74
2021/09/23 03:35:51;;;;;;;27.33;13.93;;;16.30;83.10;;;;;;5080327;28;20024;-74
2021/09/23 03:38:17;;;;;;;23.60;9.75;;;16.40;83.40;;;;;;5077753;28;20388;-74
2021/09/23 03:40:45;;;;;;;9.52;5.18;;;16.40;83.30;;;;;;5080394;28;20064;-74
2021/09/23 03:43:12;;;;;;;21.35;9.25;;;16.40;83.40;;;;;;5083214;28;20029;-74
2021/09/23 03:45:38;;;;;;;18.52;8.30;;;16.40;83.40;;;;;;5080168;28;20123;-74
2021/09/23 03:48:04;;;;;;;13.60;6.70;;;16.40;83.50;;;;;;5105760;28;20020;-74
2021/09/23 03:50:30;;;;;;;17.90;7.45;;;16.40;83.60;;;;;;5083650;28;20036;-74
2021/09/23 03:52:59;;;;;;;17.02;7.75;;;16.30;83.70;;;;;;5082208;28;20040;-74
2021/09/23 03:55:25;;;;;;;16.33;8.23;;;16.30;83.90;;;;;;5081415;28;20467;-74
2021/09/23 03:57:52;;;;;;;16.17;7.65;;;16.30;84.00;;;;;;5088547;28;20028;-74
2021/09/23 04:00:20;;;;;;;25.38;10.65;;;16.30;84.10;;;;;;5076897;28;20025;-71
2021/09/23 04:02:48;;;;;;;23.02;10.57;;;16.30;84.30;;;;;;5075011;28;20021;-71
2021/09/23 04:05:14;;;;;;;15.18;7.13;;;16.30;84.50;;;;;;5079647;28;20475;-72
2021/09/23 04:07:41;;;;;;;29.17;10.90;;;16.30;84.60;;;;;;5091903;28;20027;-71
2021/09/23 04:10:09;;;;;;;11.38;5.78;;;16.30;84.80;;;;;;5082248;28;20037;-71
2021/09/23 04:12:36;;;;;;;22.25;10.20;;;16.30;85.00;;;;;;5077543;28;20119;-72
2021/09/23 04:15:03;;;;;;;16.48;7.60;;;16.30;85.30;;;;;;5074066;28;20024;-71
2021/09/23 04:17:29;;;;;;;17.02;7.85;;;16.30;85.50;;;;;;5090645;28;20028;-71
2021/09/23 04:19:55;;;;;;;23.70;11.50;;;16.20;85.90;;;;;;5085433;28;20054;-71
2021/09/23 04:22:21;;;;;;;22.23;9.18;;;16.20;85.70;;;;;;5074147;28;20036;-71
2021/09/23 04:24:47;;;;;;;23.35;11.35;;;16.20;86.00;;;;;;5074330;28;20468;-71
2021/09/23 04:27:13;;;;;;;29.25;11.13;;;16.20;86.30;;;;;;5083402;28;20024;-71
2021/09/23 04:29:43;;;;;;;28.50;10.90;;;16.30;86.80;;;;;;5073247;28;20472;-72
2021/09/23 04:32:13;;;;;;;17.63;8.27;;;16.20;86.90;;;;;;5072485;28;20038;-71
2021/09/23 04:34:39;;;;;;;14.52;7.50;;;16.20;87.10;;;;;;5083242;28;20460;-71
2021/09/23 04:37:06;;;;;;;15.00;7.82;;;16.20;87.30;;;;;;5077860;28;20048;-71
2021/09/23 04:39:32;;;;;;;18.23;8.60;;;16.20;87.40;;;;;;5091239;28;20027;-71
2021/09/23 04:41:58;;;;;;;13.98;7.05;;;16.20;87.70;;;;;;5078917;28;20024;-72
2021/09/23 04:44:25;;;;;;;24.42;9.93;;;16.20;87.70;;;;;;5073522;28;20150;-71
2021/09/23 04:46:52;;;;;;;21.70;9.70;;;16.30;88.00;;;;;;5073132;28;20037;-72
2021/09/23 04:49:18;;;;;;;14.75;7.40;;;16.20;88.10;;;;;;5087757;28;20115;-71
2021/09/23 04:51:44;;;;;;;28.98;11.48;;;16.20;88.30;;;;;;5084514;28;20037;-71
2021/09/23 04:54:10;;;;;;;22.35;9.88;;;16.20;88.60;;;;;;5073693;28;20502;-71
2021/09/23 04:56:36;;;;;;;15.82;8.20;;;16.20;88.60;;;;;;5077123;28;20593;-72
2021/09/23 04:59:02;;;;;;;22.45;9.43;;;16.20;88.80;;;;;;5080119;28;20146;-72
2021/09/23 05:01:28;;;;;;;17.70;9.02;;;16.30;88.90;;;;;;5089942;28;20035;-72
2021/09/23 05:03:54;;;;;;;15.63;7.50;;;16.20;89.00;;;;;;5085349;28;20028;-71
2021/09/23 05:06:20;;;;;;;24.58;12.32;;;16.30;89.20;;;;;;5073891;28;20904;-71
2021/09/23 05:08:49;;;;;;;20.48;6.85;;;16.30;89.30;;;;;;5088839;28;20112;-71
2021/09/23 05:11:16;;;;;;;28.80;8.88;;;16.30;89.40;;;;;;5075876;28;20039;-69
2021/09/23 05:13:42;;;;;;;24.58;10.95;;;16.30;89.60;;;;;;5076588;28;20024;-70
2021/09/23 05:16:08;;;;;;;11.15;6.43;;;16.30;89.70;;;;;;5075237;28;20430;-70
2021/09/23 05:18:33;;;;;;;6.63;3.83;;;16.30;90.00;;;;;;5077033;28;20111;-70
2021/09/23 05:20:59;;;;;;;26.90;11.13;;;16.30;90.00;;;;;;5084342;28;20032;-70
2021/09/23 05:23:25;;;;;;;13.35;8.25;;;16.30;90.00;;;;;;5072286;28;20024;-70
2021/09/23 05:25:50;;;;;;;17.52;8.80;;;16.30;90.20;;;;;;5075377;28;20070;-70
2021/09/23 05:28:16;;;;;;;22.83;10.15;;;16.30;90.20;;;;;;5076208;28;20028;-71
2021/09/23 05:30:42;;;;;;;17.70;8.07;;;16.30;90.30;;;;;;5071602;28;21119;-70
2021/09/23 05:33:08;;;;;;;20.15;8.52;;;16.30;90.50;;;;;;5072101;28;20472;-71
2021/09/23 05:35:34;;;;;;;11.20;5.45;;;16.30;90.20;;;;;;5075203;28;20478;-70
2021/09/23 05:38:00;;;;;;;11.32;6.68;;;16.30;90.60;;;;;;5072965;28;20056;-71
2021/09/23 05:40:26;;;;;;;19.83;8.43;;;16.40;90.30;;;;;;5086280;28;20025;-72
2021/09/23 05:42:51;;;;;;;18.77;8.63;;;16.40;90.40;;;;;;5075772;28;20104;-74
2021/09/23 05:45:17;;;;;;;17.77;8.95;;;16.40;90.40;;;;;;5074115;28;20094;-73
2021/09/23 05:47:44;;;;;;;25.45;9.40;;;16.40;90.40;;;;;;5086389;28;20542;-75
2021/09/23 05:50:12;;;;;;;15.18;7.10;;;16.40;90.50;;;;;;5078771;28;20419;-72
2021/09/23 05:52:38;;;;;;;13.18;7.78;;;16.40;90.50;;;;;;5089525;28;20057;-69
2021/09/23 05:55:05;;;;;;;17.02;7.80;;;16.40;90.50;;;;;;5086616;28;20107;-68
2021/09/23 05:57:34;;;;;;;12.68;4.75;;;16.40;90.40;;;;;;5084993;28;20036;-68
2021/09/23 06:00:03;;;;;;;10.48;5.25;;;16.40;90.40;;;;;;5072484;28;20036;-70
2021/09/23 06:02:39;;;;;;;21.33;7.70;;;16.50;90.40;;;;;;5087706;28;20864;-70
2021/09/23 06:05:05;;;;;;;21.23;8.27;;;16.50;90.40;;;;;;5085802;28;20113;-70
2021/09/23 06:07:31;;;;;;;28.27;12.15;;;16.50;90.40;;;;;;5090263;28;20166;-70
2021/09/23 06:09:56;;;;;;;16.75;8.98;;;16.50;90.40;;;;;;5073608;28;20115;-70
2021/09/23 06:12:22;;;;;;;29.27;13.32;;;16.50;90.40;;;;;;5084445;28;20048;-70
2021/09/23 06:14:48;;;;;;;17.73;6.72;;;16.50;90.50;;;;;;5075092;28;20111;-70
2021/09/23 06:17:14;;;;;;;18.50;7.20;;;16.50;90.40;;;;;;5089387;28;20055;-70
2021/09/23 06:19:40;;;;;;;22.33;11.07;;;16.50;90.40;;;;;;5090064;28;20036;-70
2021/09/23 06:22:06;;;;;;;23.02;10.30;;;16.50;90.50;;;;;;5089635;28;20027;-70
2021/09/23 06:24:32;;;;;;;24.90;10.25;;;16.50;90.40;;;;;;5077047;28;20029;-70
2021/09/23 06:26:58;;;;;;;18.80;8.38;;;16.50;90.40;;;;;;5085378;28;20031;-70
2021/09/23 06:29:24;;;;;;;20.83;7.90;;;16.60;90.40;;;;;;5084832;28;20479;-70
2021/09/23 06:31:49;;;;;;;22.30;9.68;;;16.60;90.50;;;;;;5073711;28;20473;-70
2021/09/23 06:34:15;;;;;;;19.23;9.52;;;16.60;90.60;;;;;;5080795;28;20483;-70
2021/09/23 06:36:41;;;;;;;12.90;5.80;;;16.60;90.60;;;;;;5087975;28;20056;-70
2021/09/23 06:39:07;;;;;;;11.50;5.45;;;16.60;90.60;;;;;;5086834;28;20529;-70
2021/09/23 06:41:33;;;;;;;13.70;6.55;;;16.60;90.60;;;;;;5091429;28;20036;-70
2021/09/23 06:44:04;;;;;;;17.10;9.20;;;16.60;90.60;;;;;;5085570;28;20032;-70
2021/09/23 06:46:30;;;;;;;18.13;10.10;;;16.60;90.70;;;;;;5090243;28;20457;-70
2021/09/23 06:48:56;;;;;;;15.98;7.55;;;16.60;90.70;;;;;;5085301;28;20029;-70
2021/09/23 06:51:22;;;;;;;9.48;6.18;;;16.60;90.70;;;;;;5079312;28;20078;-70
2021/09/23 06:53:48;;;;;;;18.98;7.20;;;16.60;90.80;;;;;;5090199;28;20034;-70
2021/09/23 06:56:14;;;;;;;9.35;4.93;;;16.60;90.80;;;;;;5076462;28;20058;-70
2021/09/23 06:58:40;;;;;;;17.65;8.85;;;16.60;90.80;;;;;;5085937;28;20479;-70
2021/09/23 07:01:24;;;;;;;16.98;8.00;;;16.60;91.00;;;;;;5092180;28;20039;-70
2021/09/23 07:04:22;;;;;;;24.77;10.95;;;16.60;91.20;;;;;;5092229;28;20399;-70
2021/09/23 07:07:05;;;;;;;13.00;5.85;;;16.60;91.30;;;;;;5082924;28;20388;-70
2021/09/23 07:09:35;;;;;;;18.40;9.25;;;16.60;91.50;;;;;;5092003;28;20032;-70
2021/09/23 07:12:10;;;;;;;25.25;9.50;;;16.60;91.80;;;;;;5094012;28;20085;-70
2021/09/23 07:14:35;;;;;;;21.13;10.90;;;16.60;92.10;;;;;;5081051;28;20032;-70
2021/09/23 07:17:01;;;;;;;18.80;9.02;;;16.60;92.30;;;;;;5085395;28;20040;-70
2021/09/23 07:19:27;;;;;;;17.15;7.63;;;16.50;92.60;;;;;;5087913;28;20039;-70
2021/09/23 07:21:52;;;;;;;23.38;11.93;;;16.50;92.70;;;;;;5079253;28;20101;-70
2021/09/23 07:24:18;;;;;;;24.23;11.15;;;16.50;92.90;;;;;;5083921;28;20029;-70
2021/09/23 07:26:44;;;;;;;28.98;10.93;;;16.50;93.00;;;;;;5075319;28;20437;-80
2021/09/23 07:29:14;;;;;;;15.80;8.38;;;16.50;93.10;;;;;;5082985;28;20028;-72
2021/09/23 07:31:41;;;;;;;24.23;9.80;;;16.60;93.10;;;;;;5090650;28;20032;-71
2021/09/23 07:34:07;;;;;;;16.42;8.20;;;16.60;93.10;;;;;;5075548;28;20025;-69
2021/09/23 07:36:32;;;;;;;13.20;7.43;;;16.60;93.10;;;;;;5087741;28;20035;-69
2021/09/23 07:38:59;;;;;;;11.73;5.82;;;16.70;93.10;;;;;;5087971;28;20024;-69
2021/09/23 07:41:25;;;;;;;15.35;7.80;;;16.70;93.10;;;;;;5075263;28;20040;-69
2021/09/23 07:43:51;;;;;;;12.70;6.50;;;16.70;93.10;;;;;;5080130;28;20112;-69
2021/09/23 07:46:17;;;;;;;10.80;4.97;;;16.80;93.20;;;;;;5090086;28;20082;-69
2021/09/23 07:48:42;;;;;;;8.75;4.22;;;16.80;93.30;;;;;;5088294;28;20032;-69
2021/09/23 07:51:08;;;;;;;9.10;3.60;;;16.80;93.40;;;;;;5089429;28;20042;-69
2021/09/23 07:53:34;;;;;;;5.63;2.90;;;16.80;93.40;;;;;;5087050;28;20450;-69
2021/09/23 07:56:00;;;;;;;9.18;3.40;;;16.80;93.50;;;;;;5077192;28;20039;-69
2021/09/23 07:58:26;;;;;;;7.65;3.05;;;16.80;93.50;;;;;;5089990;28;20020;-69
2021/09/23 08:00:52;;;;;;;7.07;2.60;;;16.80;93.50;;;;;;5089342;28;21066;-69
2021/09/23 08:03:18;;;;;;;8.95;2.72;;;16.70;93.50;;;;;;5088014;28;20023;-69
2021/09/23 08:05:44;;;;;;;8.70;2.22;;;16.70;93.60;;;;;;5079083;28;20055;-69
2021/09/23 08:08:10;;;;;;;5.15;1.80;;;16.70;93.50;;;;;;5086751;28;20428;-69
2021/09/23 08:10:37;;;;;;;6.28;2.28;;;16.80;93.50;;;;;;5078775;28;20059;-69
2021/09/23 08:13:04;;;;;;;5.95;2.70;;;16.90;93.40;;;;;;5086705;28;21433;-69
2021/09/23 08:15:30;;;;;;;2.17;1.35;;;16.90;93.40;;;;;;5085025;28;20122;-69
2021/09/23 08:18:17;;;;;;;3.85;2.00;;;16.90;93.30;;;;;;5078310;28;20039;-69
2021/09/23 08:20:50;;;;;;;7.47;1.90;;;17.00;93.20;;;;;;5081850;28;20085;-69
2021/09/23 08:23:18;;;;;;;4.40;1.98;;;17.00;93.20;;;;;;5086448;28;20120;-69
2021/09/23 08:25:44;;;;;;;3.55;1.80;;;17.10;93.10;;;;;;5083415;28;20036;-69
2021/09/23 08:28:12;;;;;;;4.00;1.65;;;17.10;93.00;;;;;;5077926;28;20039;-69
2021/09/23 08:30:38;;;;;;;5.50;1.98;;;17.10;93.00;;;;;;5088130;28;20510;-69
2021/09/23 08:33:04;;;;;;;3.85;1.50;;;17.20;93.00;;;;;;5080920;28;20033;-69
2021/09/23 08:35:30;;;;;;;3.95;2.17;;;17.10;92.90;;;;;;5085897;28;20109;-69
2021/09/23 08:37:55;;;;;;;4.80;2.05;;;17.20;92.90;;;;;;5083625;28;20494;-69
2021/09/23 08:40:21;;;;;;;3.90;2.10;;;17.20;92.90;;;;;;5086364;28;20023;-69
2021/09/23 08:42:48;;;;;;;10.75;3.05;;;17.20;92.90;;;;;;5085249;28;20108;-69
2021/09/23 08:45:17;;;;;;;3.65;1.83;;;17.20;92.80;;;;;;5082453;28;20032;-69
2021/09/23 08:47:44;;;;;;;7.15;1.98;;;17.20;92.80;;;;;;5088321;28;20374;-69
2021/09/23 08:50:13;;;;;;;5.38;2.13;;;17.20;92.80;;;;;;5091794;28;20035;-69
2021/09/23 08:52:44;;;;;;;6.45;2.28;;;17.20;92.80;;;;;;5077377;28;20033;-69
2021/09/23 08:55:30;;;;;;;4.47;2.40;;;17.30;92.70;;;;;;5079120;28;20127;-69
2021/09/23 08:58:06;;;;;;;4.43;2.38;;;17.30;92.70;;;;;;5094691;28;20115;-69
2021/09/23 09:00:58;;;;;;;7.18;2.63;;;17.30;92.60;;;;;;5088221;28;20020;-69
2021/09/23 09:03:25;;;;;;;8.40;2.47;;;17.40;92.60;;;;;;5073379;28;20032;-69
2021/09/23 09:06:17;;;;;;;3.97;1.90;;;17.40;92.30;;;;;;5067103;28;20446;-69
2021/09/23 09:08:52;;;;;;;5.43;2.10;;;17.40;92.40;;;;;;5077538;28;20031;-69
2021/09/23 09:11:34;;;;;;;3.83;1.58;;;17.50;92.30;;;;;;5088339;28;20067;-69
2021/09/23 09:14:00;;;;;;;5.35;2.13;;;17.60;92.20;;;;;;5089947;28;20024;-69
2021/09/23 09:16:28;;;;;;;9.65;2.00;;;17.60;92.00;;;;;;5085159;28;20111;-70
2021/09/23 09:18:58;;;;;;;4.75;1.83;;;17.60;91.90;;;;;;5072500;28;20479;-74
2021/09/23 09:21:27;;;;;;;6.35;2.35;;;17.60;91.90;;;;;;5082400;28;20028;-74
2021/09/23 09:23:57;;;;;;;5.60;2.20;;;17.70;91.90;;;;;;5086849;28;20119;-75
2021/09/23 09:26:37;;;;;;;5.30;2.20;;;17.70;91.90;;;;;;5071680;28;20065;-75
2021/09/23 09:29:07;;;;;;;10.40;2.08;;;17.70;91.80;;;;;;5074887;28;20054;-75
2021/09/23 09:31:35;;;;;;;2.78;1.80;;;17.80;91.70;;;;;;5079170;28;20097;-75
2021/09/23 09:34:04;;;;;;;4.68;2.13;;;17.80;91.70;;;;;;5075726;28;20413;-76
2021/09/23 09:36:49;;;;;;;5.68;2.00;;;17.90;91.70;;;;;;5082948;28;20033;-72
2021/09/23 09:39:18;;;;;;;3.65;1.40;;;17.90;91.50;;;;;;5089518;28;20024;-72
2021/09/23 09:41:47;;;;;;;5.93;1.63;;;18.00;91.40;;;;;;5082363;28;20028;-76
2021/09/23 09:44:13;;;;;;;6.47;2.22;;;18.00;91.40;;;;;;5072988;28;20039;-79
2021/09/23 09:46:58;;;;;;;8.02;2.30;;;18.00;91.20;;;;;;5072012;28;20028;-79
2021/09/23 09:49:25;;;;;;;5.95;1.83;;;18.10;91.30;;;;;;5074071;28;20073;-79
2021/09/23 09:51:58;;;;;;;13.93;2.58;;;18.10;91.30;;;;;;5077024;28;20458;-78
2021/09/23 09:54:25;;;;;;;3.72;1.55;;;18.10;91.20;;;;;;5077977;28;20484;-77
2021/09/23 09:56:59;;;;;;;4.32;1.85;;;18.10;91.20;;;;;;5086701;28;20020;-79
2021/09/23 09:59:27;;;;;;;8.55;2.22;;;18.10;91.10;;;;;;5073706;28;20035;-76
2021/09/23 10:01:57;;;;;;;4.35;1.80;;;18.20;91.20;;;;;;5082076;28;20050;-76
2021/09/23 10:04:27;;;;;;;5.95;2.15;;;18.20;91.20;;;;;;5080582;28;20107;-76
2021/09/23 10:06:58;;;;;;;13.02;2.28;;;18.20;91.10;;;;;;5075665;28;20086;-76
2021/09/23 10:09:26;;;;;;;8.55;1.80;;;18.20;91.20;;;;;;5084553;28;20089;-76
2021/09/23 10:11:53;;;;;;;4.82;2.00;;;18.20;91.20;;;;;;5076812;28;20128;-76
2021/09/23 10:14:20;;;;;;;3.65;1.90;;;18.30;91.20;;;;;;5087262;28;20032;-72
2021/09/23 10:16:49;;;;;;;7.30;2.30;;;18.30;91.10;;;;;;5080067;28;20074;-72
2021/09/23 10:19:16;;;;;;;6.95;1.88;;;18.20;91.10;;;;;;5074961;28;20380;-72
2021/09/23 10:21:42;;;;;;;6.63;1.40;;;18.30;91.20;;;;;;5077031;28;20056;-72
2021/09/23 10:24:10;;;;;;;4.90;1.60;;;18.30;91.30;;;;;;5070437;28;20152;-72
2021/09/23 10:26:39;;;;;;;4.95;2.10;;;18.30;91.30;;;;;;5073503;28;20037;-72
2021/09/23 10:29:05;;;;;;;9.75;2.38;;;18.30;91.30;;;;;;5073082;28;20033;-72
2021/09/23 10:31:34;;;;;;;7.28;1.95;;;18.30;91.30;;;;;;5091180;28;20039;-72
2021/09/23 10:34:02;;;;;;;6.35;1.63;;;18.40;91.40;;;;;;5094293;28;20019;-72
2021/09/23 10:36:32;;;;;;;6.55;1.80;;;18.40;91.40;;;;;;5091746;28;20644;-71
2021/09/23 10:39:00;;;;;;;5.43;1.73;;;18.40;91.40;;;;;;5080949;28;20033;-72
2021/09/23 10:41:28;;;;;;;5.97;1.35;;;18.50;91.50;;;;;;5086988;28;20388;-72
2021/09/23 10:43:56;;;;;;;3.67;1.52;;;18.50;91.50;;;;;;5080016;28;20035;-72
2021/09/23 10:46:25;;;;;;;4.93;1.85;;;18.50;91.40;;;;;;5081824;28;20383;-72
2021/09/23 10:48:52;;;;;;;6.72;2.05;;;18.50;91.40;;;;;;5081661;28;20041;-72
2021/09/23 10:51:21;;;;;;;8.45;2.15;;;18.50;91.40;;;;;;5085341;28;20088;-72
2021/09/23 10:53:57;;;;;;;4.93;1.83;;;18.50;91.50;;;;;;5085830;28;20028;-72
2021/09/23 10:56:26;;;;;;;6.15;1.88;;;18.40;91.70;;;;;;5077085;28;20024;-79
2021/09/23 10:58:54;;;;;;;4.05;1.75;;;18.50;91.80;;;;;;5080925;28;20020;-72
2021/09/23 11:01:25;;;;;;;3.60;1.42;;;18.50;91.90;;;;;;5075951;28;20028;-71
2021/09/23 11:03:56;;;;;;;12.75;2.17;;;18.50;92.00;;;;;;5075300;28;20093;-72
2021/09/23 11:06:50;;;;;;;7.53;1.88;;;18.50;92.00;;;;;;5076231;28;20475;-72
2021/09/23 11:09:24;;;;;;;4.25;1.88;;;18.50;92.00;;;;;;5079043;28;20020;-72
2021/09/23 11:12:03;;;;;;;5.57;1.52;;;18.50;92.00;;;;;;5090887;28;20069;-76
2021/09/23 11:14:30;;;;;;;7.60;1.80;;;18.50;92.10;;;;;;5081872;28;20412;-72
2021/09/23 11:16:59;;;;;;;7.20;1.88;;;18.50;92.10;;;;;;5084861;28;20091;-73
2021/09/23 11:19:27;;;;;;;4.72;1.38;;;18.50;92.10;;;;;;5082348;28;20035;-72
2021/09/23 11:21:55;;;;;;;5.90;1.92;;;18.50;92.00;;;;;;5077641;28;20024;-73
2021/09/23 11:24:25;;;;;;;5.05;1.80;;;18.60;91.90;;;;;;5091811;28;20486;-72
2021/09/23 11:26:51;;;;;;;6.40;2.45;;;18.60;91.90;;;;;;5092174;28;20028;-71
2021/09/23 11:29:19;;;;;;;1.63;1.38;;;18.60;91.70;;;;;;5078892;28;20040;-71
2021/09/23 11:31:46;;;;;;;7.07;1.90;;;18.50;91.70;;;;;;5080446;28;20518;-71
2021/09/23 11:34:11;;;;;;;4.43;1.50;;;18.60;91.60;;;;;;5074398;28;20532;-72
2021/09/23 11:36:44;;;;;;;4.70;1.70;;;18.60;91.60;;;;;;5038942;28;1043822;-70
2021/09/23 11:39:20;;;;;;;8.38;2.15;;;18.70;91.50;;;;;;5076797;28;20101;-71
2021/09/23 11:42:07;;;;;;;4.45;1.63;;;18.70;91.50;;;;;;5088241;28;20395;-71
2021/09/23 11:44:33;;;;;;;7.90;2.05;;;18.70;91.50;;;;;;5081123;28;20463;-71
2021/09/23 11:46:59;;;;;;;6.50;1.75;;;18.70;91.40;;;;;;5073028;28;20028;-71
2021/09/23 11:49:25;;;;;;;3.30;1.48;;;18.70;91.40;;;;;;5083871;28;20028;-71
2021/09/23 11:51:51;;;;;;;2.95;1.20;;;18.70;91.40;;;;;;5087345;28;20036;-71
2021/09/23 11:54:22;;;;;;;3.75;1.35;;;18.70;91.40;;;;;;5073898;28;20070;-71
2021/09/23 11:56:47;;;;;;;3.13;1.40;;;18.70;91.40;;;;;;5078052;28;20395;-71
2021/09/23 11:59:24;;;;;;;5.50;1.55;;;18.70;91.40;;;;;;5087156;28;20020;-71
2021/09/23 12:02:20;;;;;;;4.75;1.42;;;18.80;91.50;;;;;;5084336;28;20035;-71
2021/09/23 12:04:54;;;;;;;4.30;1.77;;;18.90;91.50;;;;;;5062532;28;20101;-71
2021/09/23 12:07:21;;;;;;;5.88;2.53;;;18.90;91.50;;;;;;5075206;28;20052;-76
2021/09/23 12:10:08;;;;;;;6.80;1.92;;;18.90;91.40;;;;;;5080746;28;20056;-76
2021/09/23 12:12:41;;;;;;;3.08;1.33;;;18.90;91.40;;;;;;5092134;28;20044;-76
2021/09/23 12:15:07;;;;;;;7.57;1.90;;;19.00;91.40;;;;;;5084125;28;20020;-76
2021/09/23 12:17:33;;;;;;;3.70;1.45;;;19.00;91.40;;;;;;5079621;28;20098;-77
2021/09/23 12:20:02;;;;;;;6.32;1.70;;;19.00;91.30;;;;;;5087789;28;20043;-76
2021/09/23 12:22:32;;;;;;;6.45;1.73;;;19.00;91.20;;;;;;5076216;28;20032;-76
2021/09/23 12:24:57;;;;;;;7.63;2.13;;;19.10;91.10;;;;;;5085328;28;20035;-77
2021/09/23 12:27:28;;;;;;;6.32;1.95;;;19.10;90.90;;;;;;5083211;28;20074;-76
2021/09/23 12:29:56;;;;;;;8.63;2.22;;;19.10;90.90;;;;;;5086120;28;20471;-77
2021/09/23 12:32:37;;;;;;;3.55;1.70;;;19.10;90.90;;;;;;5073675;28;20040;-74
2021/09/23 12:35:18;;;;;;;3.88;1.05;;;19.10;90.80;;;;;;5076513;28;20017;-71
2021/09/23 12:37:46;;;;;;;8.25;1.65;;;19.10;90.70;;;;;;5073711;28;20381;-72
2021/09/23 12:40:30;;;;;;;3.88;1.70;;;19.20;90.60;;;;;;5077844;28;20023;-72
2021/09/23 12:42:57;;;;;;;4.75;1.50;;;19.30;90.50;;;;;;5092020;28;20471;-72
2021/09/23 12:45:26;;;;;;;6.03;1.60;;;19.30;90.50;;;;;;5078797;28;20032;-71
2021/09/23 12:47:55;;;;;;;12.77;2.75;;;19.30;90.60;;;;;;5104833;28;20498;-71